createdAt,value
2023-05-16T00:00:00.911Z,1369.00
2023-05-16T00:01:01.300Z,1380.00
2023-05-16T00:02:00.887Z,1369.00
2023-05-16T00:03:00.952Z,1371.00
2023-05-16T00:04:00.988Z,1361.00
2023-05-16T00:05:00.871Z,1356.00
2023-05-16T00:06:00.846Z,1365.00
2023-05-16T00:07:00.836Z,1369.00
2023-05-16T00:08:00.845Z,1359.00
2023-05-16T00:09:00.874Z,1374.00
2023-05-16T00:10:00.811Z,1368.00
2023-05-16T00:11:01.304Z,1355.00
2023-05-16T00:12:00.830Z,1371.00
2023-05-16T00:13:00.825Z,1379.00
2023-05-16T00:14:00.831Z,1364.00
2023-05-16T00:15:00.830Z,1366.00
2023-05-16T00:16:00.802Z,1352.00
2023-05-16T00:17:00.808Z,1368.00
2023-05-16T00:18:00.804Z,1357.00
2023-05-16T00:19:00.925Z,1353.00
2023-05-16T00:20:00.763Z,1351.00
2023-05-16T00:21:00.830Z,1347.00
2023-05-16T00:22:00.731Z,1361.00
2023-05-16T00:23:00.733Z,1360.00
2023-05-16T00:24:00.718Z,1348.00
2023-05-16T00:25:00.737Z,1349.00
2023-05-16T00:26:00.776Z,1342.00
2023-05-16T00:27:00.729Z,1352.00
2023-05-16T00:28:00.709Z,1337.00
2023-05-16T00:29:00.722Z,1342.00
2023-05-16T00:30:00.683Z,1333.00
2023-05-16T00:31:00.834Z,1332.00
2023-05-16T00:32:00.710Z,1329.00
2023-05-16T00:33:00.761Z,1354.00
2023-05-16T00:34:00.692Z,1347.00
2023-05-16T00:35:00.692Z,1345.00
2023-05-16T00:36:00.845Z,1339.00
2023-05-16T00:37:00.690Z,1336.00
2023-05-16T00:38:00.644Z,1329.00
2023-05-16T00:39:00.645Z,1324.00
2023-05-16T00:40:00.629Z,1321.00
2023-05-16T00:41:00.827Z,1320.00
2023-05-16T00:42:00.597Z,1316.00
2023-05-16T00:43:00.675Z,1307.00
2023-05-16T00:44:00.600Z,1329.00
2023-05-16T00:45:00.612Z,1318.00
2023-05-16T00:46:00.694Z,1331.00
2023-05-16T00:47:00.639Z,1321.00
2023-05-16T00:48:00.636Z,1329.00
2023-05-16T00:49:00.640Z,1332.00
2023-05-16T00:50:00.667Z,1312.00
2023-05-16T00:51:00.971Z,1322.00
2023-05-16T00:52:00.664Z,1311.00
2023-05-16T00:53:00.672Z,1312.00
2023-05-16T00:54:00.658Z,1307.00
2023-05-16T00:55:00.703Z,1314.00
2023-05-16T00:56:00.664Z,1319.00
2023-05-16T00:57:00.659Z,1311.00
2023-05-16T00:58:00.676Z,1309.00
2023-05-16T00:59:00.671Z,1305.00
2023-05-16T01:00:00.713Z,1304.00
2023-05-16T01:01:00.742Z,1313.00
2023-05-16T01:02:00.811Z,1299.00
2023-05-16T01:03:00.806Z,1306.00
2023-05-16T01:04:00.943Z,1303.00
2023-05-16T01:05:00.734Z,1305.00
2023-05-16T01:06:00.735Z,1299.00
2023-05-16T01:07:00.848Z,1282.00
2023-05-16T01:08:00.727Z,1303.00
2023-05-16T01:09:00.725Z,1293.00
2023-05-16T01:10:00.731Z,1297.00
2023-05-16T01:11:00.740Z,1291.00
2023-05-16T01:12:00.750Z,1291.00
2023-05-16T01:13:00.782Z,1303.00
2023-05-16T01:14:00.792Z,1305.00
2023-05-16T01:15:00.795Z,1290.00
2023-05-16T01:16:00.901Z,1289.00
2023-05-16T01:17:00.799Z,1270.00
2023-05-16T01:18:00.813Z,1296.00
2023-05-16T01:19:00.823Z,1293.00
2023-05-16T01:20:00.822Z,1289.00
2023-05-16T01:21:01.317Z,1286.00
2023-05-16T01:22:00.842Z,1287.00
2023-05-16T01:23:00.852Z,1282.00
2023-05-16T01:24:00.888Z,1287.00
2023-05-16T01:25:00.861Z,1282.00
2023-05-16T01:26:01.312Z,1286.00
2023-05-16T01:27:00.864Z,1285.00
2023-05-16T01:28:00.881Z,1270.00
2023-05-16T01:29:00.911Z,1283.00
2023-05-16T01:30:00.936Z,1268.00
2023-05-16T01:31:01.387Z,1281.00
2023-05-16T01:32:01.047Z,1273.00
2023-05-16T01:33:00.992Z,1273.00
2023-05-16T01:34:00.959Z,1269.00
2023-05-16T01:35:00.981Z,1282.00
2023-05-16T01:36:00.964Z,1280.00
2023-05-16T01:37:00.977Z,1262.00
2023-05-16T01:38:00.993Z,1270.00
2023-05-16T01:39:00.998Z,1251.00
2023-05-16T01:40:00.990Z,1268.00
2023-05-16T01:41:01.056Z,1268.00
2023-05-16T01:42:01.009Z,1256.00
2023-05-16T01:43:01.049Z,1256.00
2023-05-16T01:44:01.045Z,1255.00
2023-05-16T01:45:01.094Z,1263.00
2023-05-16T01:46:01.362Z,1253.00
2023-05-16T01:47:01.193Z,1261.00
2023-05-16T01:48:01.162Z,1224.00
2023-05-16T01:49:01.078Z,1264.00
2023-05-16T01:50:01.120Z,1243.00
2023-05-16T01:51:01.102Z,1252.00
2023-05-16T01:52:01.133Z,1248.00
2023-05-16T01:53:01.113Z,1262.00
2023-05-16T01:54:01.142Z,1234.00
2023-05-16T01:55:01.139Z,1249.00
2023-05-16T01:56:01.343Z,1243.00
2023-05-16T01:57:01.188Z,1246.00
2023-05-16T01:58:01.194Z,1249.00
2023-05-16T01:59:01.221Z,1238.00
2023-05-16T02:00:01.303Z,1246.00
2023-05-16T02:01:01.256Z,1260.00
2023-05-16T02:02:01.223Z,1253.00
2023-05-16T02:03:01.244Z,1250.00
2023-05-16T02:04:01.291Z,1249.00
2023-05-16T02:05:01.277Z,1238.00
2023-05-16T02:06:01.348Z,1239.00
2023-05-16T02:07:01.253Z,1237.00
2023-05-16T02:08:01.318Z,1251.00
2023-05-16T02:09:01.300Z,1238.00
2023-05-16T02:10:01.309Z,1248.00
2023-05-16T02:11:01.359Z,1248.00
2023-05-16T02:12:01.325Z,1249.00
2023-05-16T02:13:01.320Z,1234.00
2023-05-16T02:14:01.331Z,1232.00
2023-05-16T02:15:01.356Z,1225.00
2023-05-16T02:16:01.363Z,1231.00
2023-05-16T02:17:01.501Z,1221.00
2023-05-16T02:18:01.390Z,1226.00
2023-05-16T02:19:01.514Z,1228.00
2023-05-16T02:20:01.382Z,1219.00
2023-05-16T02:21:01.933Z,1230.00
2023-05-16T02:22:01.387Z,1233.00
2023-05-16T02:23:01.397Z,1228.00
2023-05-16T02:24:01.421Z,1211.00
2023-05-16T02:25:01.471Z,1210.00
2023-05-16T02:26:01.437Z,1228.00
2023-05-16T02:27:01.462Z,1221.00
2023-05-16T02:28:01.466Z,1234.00
2023-05-16T02:29:01.487Z,1230.00
2023-05-16T02:30:01.479Z,1212.00
2023-05-16T02:31:01.963Z,1219.00
2023-05-16T02:32:01.551Z,1222.00
2023-05-16T02:33:01.548Z,1220.00
2023-05-16T02:34:01.557Z,1217.00
2023-05-16T02:35:01.555Z,1215.00
2023-05-16T02:36:01.864Z,1221.00
2023-05-16T02:37:01.577Z,1214.00
2023-05-16T02:38:01.579Z,1222.00
2023-05-16T02:39:01.638Z,1232.00
2023-05-16T02:40:01.658Z,1213.00
2023-05-16T02:41:01.867Z,1220.00
2023-05-16T02:42:01.638Z,1207.00
2023-05-16T02:43:01.671Z,1221.00
2023-05-16T02:44:01.662Z,1218.00
2023-05-16T02:45:01.669Z,1203.00
2023-05-16T02:46:01.884Z,1213.00
2023-05-16T02:47:01.681Z,1208.00
2023-05-16T02:48:01.708Z,1199.00
2023-05-16T02:49:01.685Z,1192.00
2023-05-16T02:50:01.660Z,1203.00
2023-05-16T02:51:01.879Z,1195.00
2023-05-16T02:52:01.711Z,1197.00
2023-05-16T02:53:01.711Z,1208.00
2023-05-16T02:54:01.722Z,1207.00
2023-05-16T02:55:16.943Z,1196.00
2023-05-16T02:56:02.717Z,1197.00
2023-05-16T02:57:01.700Z,1199.00
2023-05-16T02:58:01.669Z,1202.00
2023-05-16T02:59:01.691Z,1206.00
2023-05-16T03:00:01.694Z,1216.00
2023-05-16T03:01:01.870Z,1198.00
2023-05-16T03:02:01.782Z,1190.00
2023-05-16T03:03:01.682Z,1206.00
2023-05-16T03:04:01.812Z,1200.00
2023-05-16T03:05:01.623Z,1193.00
2023-05-16T03:06:01.857Z,1197.00
2023-05-16T03:07:01.613Z,1197.00
2023-05-16T03:08:01.621Z,1163.00
2023-05-16T03:09:01.622Z,1180.00
2023-05-16T03:10:01.635Z,1174.00
2023-05-16T03:11:01.864Z,1179.00
2023-05-16T03:12:01.612Z,1202.00
2023-05-16T03:13:01.603Z,1179.00
2023-05-16T03:14:02.146Z,1180.00
2023-05-16T03:15:01.587Z,1174.00
2023-05-16T03:16:01.925Z,1180.00
2023-05-16T03:17:01.564Z,1166.00
2023-05-16T03:18:01.583Z,1175.00
2023-05-16T03:19:01.615Z,1185.00
2023-05-16T03:20:01.555Z,1171.00
2023-05-16T03:21:01.877Z,1181.00
2023-05-16T03:22:01.512Z,1177.00
2023-05-16T03:23:01.508Z,1183.00
2023-05-16T03:24:01.570Z,1171.00
2023-05-16T03:25:01.483Z,1176.00
2023-05-16T03:26:01.872Z,1183.00
2023-05-16T03:27:01.507Z,1182.00
2023-05-16T03:28:01.535Z,1164.00
2023-05-16T03:29:01.525Z,1164.00
2023-05-16T03:30:01.569Z,1175.00
2023-05-16T03:31:01.583Z,1174.00
2023-05-16T03:32:01.645Z,1143.00
2023-05-16T03:33:01.668Z,1170.00
2023-05-16T03:34:01.593Z,1158.00
2023-05-16T03:35:01.620Z,1154.00
2023-05-16T03:36:01.936Z,1162.00
2023-05-16T03:37:01.608Z,1164.00
2023-05-16T03:38:01.617Z,1156.00
2023-05-16T03:39:01.641Z,1164.00
2023-05-16T03:40:01.637Z,1161.00
2023-05-16T03:41:01.885Z,1156.00
2023-05-16T03:42:01.647Z,1161.00
2023-05-16T03:43:01.622Z,1160.00
2023-05-16T03:44:01.635Z,1140.00
2023-05-16T03:45:01.678Z,1148.00
2023-05-16T03:46:01.934Z,1146.00
2023-05-16T03:47:01.645Z,1153.00
2023-05-16T03:48:01.675Z,1151.00
2023-05-16T03:49:01.660Z,1161.00
2023-05-16T03:50:01.673Z,1153.00
2023-05-16T03:51:01.879Z,1146.00
2023-05-16T03:52:01.710Z,1140.00
2023-05-16T03:53:01.681Z,1147.00
2023-05-16T03:54:01.712Z,1143.00
2023-05-16T03:55:01.673Z,1143.00
2023-05-16T03:56:01.706Z,1133.00
2023-05-16T03:57:01.699Z,1144.00
2023-05-16T03:58:01.695Z,1137.00
2023-05-16T03:59:01.732Z,1154.00
2023-05-16T04:00:01.737Z,1139.00
2023-05-16T04:01:01.903Z,1149.00
2023-05-16T04:02:01.763Z,1135.00
2023-05-16T04:03:01.779Z,1138.00
2023-05-16T04:04:01.734Z,1127.00
2023-05-16T04:05:01.771Z,1128.00
2023-05-16T04:06:01.836Z,1133.00
2023-05-16T04:07:01.779Z,1138.00
2023-05-16T04:08:01.800Z,1127.00
2023-05-16T04:09:01.801Z,1147.00
2023-05-16T04:10:01.856Z,1137.00
2023-05-16T04:11:01.860Z,1144.00
2023-05-16T04:12:01.906Z,1126.00
2023-05-16T04:13:01.825Z,1136.00
2023-05-16T04:14:02.066Z,1133.00
2023-05-16T04:15:01.835Z,1124.00
2023-05-16T04:16:01.847Z,1123.00
2023-05-16T04:17:02.000Z,1135.00
2023-05-16T04:18:01.918Z,1118.00
2023-05-16T04:19:01.939Z,1121.00
2023-05-16T04:20:01.872Z,1122.00
2023-05-16T04:21:01.880Z,1116.00
2023-05-16T04:22:01.944Z,1123.00
2023-05-16T04:23:01.941Z,1110.00
2023-05-16T04:24:01.954Z,1128.00
2023-05-16T04:25:01.938Z,1125.00
2023-05-16T04:26:02.423Z,1110.00
2023-05-16T04:27:01.949Z,1118.00
2023-05-16T04:28:01.974Z,1102.00
2023-05-16T04:29:01.996Z,1119.00
2023-05-16T04:30:01.988Z,1113.00
2023-05-16T04:31:02.454Z,1116.00
2023-05-16T04:32:02.085Z,1132.00
2023-05-16T04:33:02.089Z,1110.00
2023-05-16T04:34:02.075Z,1105.00
2023-05-16T04:35:02.105Z,1109.00
2023-05-16T04:36:02.446Z,1097.00
2023-05-16T04:37:02.109Z,1108.00
2023-05-16T04:38:02.106Z,1096.00
2023-05-16T04:39:02.129Z,1102.00
2023-05-16T04:40:02.184Z,1112.00
2023-05-16T04:41:02.422Z,1111.00
2023-05-16T04:42:02.146Z,1111.00
2023-05-16T04:43:02.194Z,1111.00
2023-05-16T04:44:02.196Z,1094.00
2023-05-16T04:45:02.242Z,1104.00
2023-05-16T04:46:02.463Z,1093.00
2023-05-16T04:47:02.211Z,1109.00
2023-05-16T04:48:02.340Z,1115.00
2023-05-16T04:49:02.894Z,1108.00
2023-05-16T04:50:02.249Z,1101.00
2023-05-16T04:51:02.310Z,1092.00
2023-05-16T04:52:02.270Z,1105.00
2023-05-16T04:53:02.323Z,1091.00
2023-05-16T04:54:02.388Z,1097.00
2023-05-16T04:55:02.344Z,1094.00
2023-05-16T04:56:02.386Z,1089.00
2023-05-16T04:57:02.393Z,1081.00
2023-05-16T04:58:02.407Z,1085.00
2023-05-16T04:59:02.395Z,1095.00
2023-05-16T05:00:02.402Z,1095.00
2023-05-16T05:01:02.443Z,1082.00
2023-05-16T05:02:02.479Z,1079.00
2023-05-16T05:03:02.506Z,1084.00
2023-05-16T05:04:02.468Z,1083.00
2023-05-16T05:05:02.501Z,1076.00
2023-05-16T05:06:02.513Z,1075.00
2023-05-16T05:07:02.593Z,1103.00
2023-05-16T05:08:02.531Z,1089.00
2023-05-16T05:09:02.592Z,1086.00
2023-05-16T05:10:02.556Z,1085.00
2023-05-16T05:11:02.602Z,1071.00
2023-05-16T05:12:02.614Z,1078.00
2023-05-16T05:13:02.600Z,1082.00
2023-05-16T05:14:02.672Z,1076.00
2023-05-16T05:15:02.651Z,1071.00
2023-05-16T05:16:02.681Z,1073.00
2023-05-16T05:17:02.730Z,1067.00
2023-05-16T05:18:02.786Z,1071.00
2023-05-16T05:19:02.779Z,1077.00
2023-05-16T05:20:03.393Z,1079.00
2023-05-16T05:21:02.913Z,1074.00
2023-05-16T05:22:02.730Z,1082.00
2023-05-16T05:23:02.773Z,1073.00
2023-05-16T05:24:02.810Z,1070.00
2023-05-16T05:25:02.848Z,1060.00
2023-05-16T05:26:02.959Z,1071.00
2023-05-16T05:27:02.846Z,1053.00
2023-05-16T05:28:02.822Z,1061.00
2023-05-16T05:29:05.669Z,1056.00
2023-05-16T05:30:02.897Z,1074.00
2023-05-16T05:31:02.933Z,1073.00
2023-05-16T05:32:03.003Z,1077.00
2023-05-16T05:33:02.859Z,1071.00
2023-05-16T05:34:02.853Z,1072.00
2023-05-16T05:35:02.800Z,1058.00
2023-05-16T05:36:04.159Z,1051.00
2023-05-16T05:37:02.829Z,1071.00
2023-05-16T05:38:02.802Z,1052.00
2023-05-16T05:39:02.811Z,1058.00
2023-05-16T05:40:02.814Z,1070.00
2023-05-16T05:41:02.809Z,1055.00
2023-05-16T05:42:02.807Z,1049.00
2023-05-16T05:43:02.787Z,1051.00
2023-05-16T05:44:02.750Z,1060.00
2023-05-16T05:45:02.775Z,1062.00
2023-05-16T05:46:02.962Z,1046.00
2023-05-16T05:47:02.786Z,1065.00
2023-05-16T05:48:02.752Z,1060.00
2023-05-16T05:49:02.759Z,1052.00
2023-05-16T05:50:02.745Z,1054.00
2023-05-16T05:51:02.729Z,1061.00
2023-05-16T05:52:02.680Z,1050.00
2023-05-16T05:53:02.730Z,1045.00
2023-05-16T05:54:02.686Z,1065.00
2023-05-16T05:55:02.798Z,1051.00
2023-05-16T05:56:02.909Z,1037.00
2023-05-16T05:57:02.694Z,1040.00
2023-05-16T05:58:03.813Z,1052.00
2023-05-16T05:59:02.689Z,1070.00
2023-05-16T06:00:02.687Z,1056.00
2023-05-16T06:01:02.968Z,1054.00
2023-05-16T06:02:02.707Z,1067.00
2023-05-16T06:03:02.737Z,1051.00
2023-05-16T06:04:02.631Z,1044.00
2023-05-16T06:05:02.676Z,1048.00
2023-05-16T06:06:02.671Z,1049.00
2023-05-16T06:07:02.624Z,1052.00
2023-05-16T06:08:02.638Z,1040.00
2023-05-16T06:09:02.609Z,1065.00
2023-05-16T06:10:04.808Z,1048.00
2023-05-16T06:11:02.644Z,1048.00
2023-05-16T06:12:02.660Z,1051.00
2023-05-16T06:13:02.637Z,1042.00
2023-05-16T06:14:02.645Z,1037.00
2023-05-16T06:15:03.464Z,1047.00
2023-05-16T06:16:03.001Z,1039.00
2023-05-16T06:17:02.723Z,1042.00
2023-05-16T06:18:02.747Z,1045.00
2023-05-16T06:19:02.769Z,1051.00
2023-05-16T06:20:02.770Z,1049.00
2023-05-16T06:21:03.000Z,1041.00
2023-05-16T06:22:02.784Z,1054.00
2023-05-16T06:23:02.807Z,1052.00
2023-05-16T06:24:02.797Z,1048.00
2023-05-16T06:25:02.858Z,1043.00
2023-05-16T06:26:02.967Z,1047.00
2023-05-16T06:27:02.882Z,1041.00
2023-05-16T06:28:02.888Z,1036.00
2023-05-16T06:29:02.887Z,1047.00
2023-05-16T06:30:02.912Z,1031.00
2023-05-16T06:31:02.997Z,1042.00
2023-05-16T06:32:03.068Z,1055.00
2023-05-16T06:33:03.072Z,1048.00
2023-05-16T06:34:02.998Z,1039.00
2023-05-16T06:35:03.027Z,1041.00
2023-05-16T06:36:03.088Z,1041.00
2023-05-16T06:37:03.091Z,1042.00
2023-05-16T06:38:03.100Z,1049.00
2023-05-16T06:39:03.108Z,1031.00
2023-05-16T06:40:03.133Z,1053.00
2023-05-16T06:41:03.474Z,1046.00
2023-05-16T06:42:03.173Z,1048.00
2023-05-16T06:43:03.964Z,1055.00
2023-05-16T06:44:03.209Z,1043.00
2023-05-16T06:45:03.252Z,1048.00
2023-05-16T06:46:03.332Z,1043.00
2023-05-16T06:47:03.382Z,1041.00
2023-05-16T06:48:03.346Z,1046.00
2023-05-16T06:49:03.341Z,1050.00
2023-05-16T06:50:03.378Z,1036.00
2023-05-16T06:51:03.516Z,1040.00
2023-05-16T06:52:03.442Z,1050.00
2023-05-16T06:53:03.428Z,1029.00
2023-05-16T06:54:04.258Z,1059.00
2023-05-16T06:55:03.485Z,1040.00
2023-05-16T06:56:03.956Z,1051.00
2023-05-16T06:57:03.557Z,1045.00
2023-05-16T06:58:03.550Z,1050.00
2023-05-16T06:59:03.589Z,1062.00
2023-05-16T07:00:03.647Z,1039.00
2023-05-16T07:01:04.028Z,1032.00
2023-05-16T07:02:03.691Z,1054.00
2023-05-16T07:03:04.730Z,1054.00
2023-05-16T07:04:03.692Z,1054.00
2023-05-16T07:05:04.689Z,1054.00
2023-05-16T07:06:03.992Z,1054.00
2023-05-16T07:07:04.623Z,1055.00
2023-05-16T07:08:04.184Z,1055.00
2023-05-16T07:09:03.599Z,1059.00
2023-05-16T07:10:03.646Z,1055.00
2023-05-16T07:11:03.598Z,1054.00
2023-05-16T07:12:03.588Z,1049.00
2023-05-16T07:13:03.553Z,1054.00
2023-05-16T07:14:03.539Z,1050.00
2023-05-16T07:15:03.845Z,1048.00
2023-05-16T07:16:04.018Z,1044.00
2023-05-16T07:17:03.800Z,1051.00
2023-05-16T07:18:03.737Z,1043.00
2023-05-16T07:19:03.725Z,1027.00
2023-05-16T07:20:05.192Z,1040.00
2023-05-16T07:21:04.005Z,1044.00
2023-05-16T07:22:03.714Z,1047.00
2023-05-16T07:23:03.773Z,1041.00
2023-05-16T07:24:03.838Z,1039.00
2023-05-16T07:25:03.843Z,1038.00
2023-05-16T07:26:03.849Z,1050.00
2023-05-16T07:27:03.865Z,1034.00
2023-05-16T07:28:03.874Z,1046.00
2023-05-16T07:29:04.511Z,1046.00
2023-05-16T07:30:03.931Z,1048.00
2023-05-16T07:31:03.981Z,1048.00
2023-05-16T07:32:04.042Z,1045.00
2023-05-16T07:33:04.080Z,1041.00
2023-05-16T07:34:04.018Z,1038.00
2023-05-16T07:35:04.027Z,1048.00
2023-05-16T07:36:15.201Z,1039.00
2023-05-16T07:37:05.058Z,1040.00
2023-05-16T07:38:04.059Z,1040.00
2023-05-16T07:39:04.050Z,1046.00
2023-05-16T07:40:04.039Z,1046.00
2023-05-16T07:41:04.027Z,1055.00
2023-05-16T07:42:03.994Z,1045.00
2023-05-16T07:43:04.021Z,1049.00
2023-05-16T07:44:04.014Z,1045.00
2023-05-16T07:45:03.991Z,1047.00
2023-05-16T07:46:04.082Z,1045.00
2023-05-16T07:47:04.022Z,1041.00
2023-05-16T07:48:04.104Z,1038.00
2023-05-16T07:49:03.948Z,1039.00
2023-05-16T07:50:03.981Z,1046.00
2023-05-16T07:51:04.023Z,1067.00
2023-05-16T07:52:03.921Z,1091.00
2023-05-16T07:53:03.969Z,1083.00
2023-05-16T07:54:03.912Z,1107.00
2023-05-16T07:55:03.918Z,1119.00
2023-05-16T07:56:03.940Z,1142.00
2023-05-16T07:57:03.898Z,1138.00
2023-05-16T07:58:03.874Z,1133.00
2023-05-16T07:59:03.903Z,1167.00
2023-05-16T08:00:03.922Z,1193.00
2023-05-16T08:01:04.499Z,1211.00
2023-05-16T08:02:04.098Z,1227.00
2023-05-16T08:03:04.201Z,1240.00
2023-05-16T08:04:04.203Z,1256.00
2023-05-16T08:05:04.282Z,1267.00
2023-05-16T08:06:04.680Z,1281.00
2023-05-16T08:07:04.323Z,1304.00
2023-05-16T08:08:04.346Z,1342.00
2023-05-16T08:09:04.397Z,1351.00
2023-05-16T08:10:04.443Z,1372.00
2023-05-16T08:11:04.501Z,1380.00
2023-05-16T08:12:04.498Z,1383.00
2023-05-16T08:13:04.560Z,1416.00
2023-05-16T08:14:04.539Z,1442.00
2023-05-16T08:15:04.576Z,1483.00
2023-05-16T08:16:04.619Z,1503.00
2023-05-16T08:17:04.599Z,1516.00
2023-05-16T08:18:05.454Z,1532.00
2023-05-16T08:19:04.635Z,1554.00
2023-05-16T08:20:04.601Z,1570.00
2023-05-16T08:21:04.624Z,1574.00
2023-05-16T08:22:04.625Z,1594.00
2023-05-16T08:23:04.628Z,1615.00
2023-05-16T08:24:04.626Z,1630.00
2023-05-16T08:25:04.614Z,1651.00
2023-05-16T08:26:04.976Z,1652.00
2023-05-16T08:27:04.644Z,1667.00
2023-05-16T08:28:05.648Z,1700.00
2023-05-16T08:29:04.720Z,1726.00
2023-05-16T08:30:04.739Z,1717.00
2023-05-16T08:31:05.030Z,1737.00
2023-05-16T08:32:04.818Z,1752.00
2023-05-16T08:33:04.986Z,1774.00
2023-05-16T08:34:04.943Z,1789.00
2023-05-16T08:35:05.053Z,1808.00
2023-05-16T08:36:05.095Z,1834.00
2023-05-16T08:37:05.140Z,1830.00
2023-05-16T08:38:05.213Z,1846.00
2023-05-16T08:39:05.265Z,1870.00
2023-05-16T08:40:05.340Z,1908.00
2023-05-16T08:41:05.515Z,1912.00
2023-05-16T08:42:05.438Z,1905.00
2023-05-16T08:43:05.522Z,1914.00
2023-05-16T08:44:05.531Z,1869.00
2023-05-16T08:45:05.611Z,1858.00
2023-05-16T08:46:05.681Z,1902.00
2023-05-16T08:47:05.753Z,1934.00
2023-05-16T08:48:07.208Z,1940.00
2023-05-16T08:49:05.721Z,1958.00
2023-05-16T08:50:05.770Z,2002.00
2023-05-16T08:51:06.031Z,2013.00
2023-05-16T08:52:05.721Z,2011.00
2023-05-16T08:53:05.699Z,2003.00
2023-05-16T08:54:05.718Z,2033.00
2023-05-16T08:55:11.121Z,1900.00
2023-05-16T08:56:07.023Z,1902.00
2023-05-16T08:57:05.683Z,1907.00
2023-05-16T08:58:05.676Z,1811.00
2023-05-16T08:59:05.698Z,1670.00
2023-05-16T09:00:05.684Z,1560.00
2023-05-16T09:01:06.047Z,1486.00
2023-05-16T09:02:05.652Z,1401.00
2023-05-16T09:03:05.673Z,1319.00
2023-05-16T09:04:05.648Z,1236.00
2023-05-16T09:05:05.668Z,1164.00
2023-05-16T09:06:06.726Z,1127.00
2023-05-16T09:07:05.632Z,1110.00
2023-05-16T09:08:05.639Z,1065.00
2023-05-16T09:09:05.645Z,1047.00
2023-05-16T09:10:05.683Z,1010.00
2023-05-16T09:11:06.030Z,922.00
2023-05-16T09:12:05.764Z,814.00
2023-05-16T09:13:05.771Z,697.00
2023-05-16T09:14:05.913Z,658.00
2023-05-16T09:15:05.807Z,644.00
2023-05-16T09:16:06.026Z,653.00
2023-05-16T09:17:06.002Z,643.00
2023-05-16T09:18:06.027Z,617.00
2023-05-16T09:19:06.104Z,609.00
2023-05-16T09:20:06.054Z,612.00
2023-05-16T09:21:06.105Z,616.00
2023-05-16T09:22:06.157Z,587.00
2023-05-16T09:23:06.208Z,582.00
2023-05-16T09:24:06.295Z,574.00
2023-05-16T09:25:08.629Z,590.00
2023-05-16T09:26:07.258Z,590.00
2023-05-16T09:27:06.289Z,566.00
2023-05-16T09:28:06.261Z,529.00
2023-05-16T09:29:06.253Z,521.00
2023-05-16T09:30:06.253Z,498.00
2023-05-16T09:31:06.604Z,507.00
2023-05-16T09:32:06.240Z,510.00
2023-05-16T09:33:06.300Z,516.00
2023-05-16T09:34:06.216Z,503.00
2023-05-16T09:35:06.228Z,504.00
2023-05-16T09:36:06.542Z,503.00
2023-05-16T09:37:06.288Z,500.00
2023-05-16T09:38:06.367Z,503.00
2023-05-16T09:39:06.462Z,521.00
2023-05-16T09:40:06.469Z,563.00
2023-05-16T09:41:06.600Z,606.00
2023-05-16T09:42:06.551Z,611.00
2023-05-16T09:43:06.637Z,642.00
2023-05-16T09:44:06.753Z,647.00
2023-05-16T09:45:06.666Z,635.00
2023-05-16T09:46:07.094Z,619.00
2023-05-16T09:47:06.779Z,662.00
2023-05-16T09:48:06.893Z,1009.00
2023-05-16T09:49:06.807Z,1170.00
2023-05-16T09:50:06.806Z,1284.00
2023-05-16T09:51:07.058Z,1396.00
2023-05-16T09:52:06.852Z,1381.00
2023-05-16T09:53:06.832Z,1407.00
2023-05-16T09:54:06.835Z,1410.00
2023-05-16T09:55:06.890Z,1312.00
2023-05-16T09:56:06.878Z,1302.00
2023-05-16T09:57:06.861Z,1363.00
2023-05-16T09:58:06.890Z,1405.00
2023-05-16T09:59:06.850Z,1411.00
2023-05-16T10:00:06.868Z,1455.00
2023-05-16T10:01:07.073Z,1507.00
2023-05-16T10:02:07.009Z,1572.00
2023-05-16T10:03:07.067Z,1626.00
2023-05-16T10:04:07.171Z,1645.00
2023-05-16T10:05:07.175Z,1687.00
2023-05-16T10:06:07.193Z,1724.00
2023-05-16T10:07:07.290Z,1761.00
2023-05-16T10:08:07.306Z,1816.00
2023-05-16T10:09:07.347Z,1844.00
2023-05-16T10:10:07.422Z,1866.00
2023-05-16T10:11:07.473Z,1906.00
2023-05-16T10:12:07.470Z,1949.00
2023-05-16T10:13:07.548Z,1954.00
2023-05-16T10:14:08.004Z,1981.00
2023-05-16T10:15:07.577Z,2026.00
2023-05-16T10:16:08.089Z,2046.00
2023-05-16T10:17:07.621Z,2060.00
2023-05-16T10:18:07.706Z,2082.00
2023-05-16T10:19:07.786Z,2116.00
2023-05-16T10:20:07.693Z,2143.00
2023-05-16T10:21:09.679Z,2168.00
2023-05-16T10:22:07.687Z,2212.00
2023-05-16T10:23:07.659Z,2223.00
2023-05-16T10:24:07.667Z,2233.00
2023-05-16T10:25:07.656Z,2241.00
2023-05-16T10:26:08.055Z,2273.00
2023-05-16T10:27:07.736Z,2290.00
2023-05-16T10:28:07.643Z,2309.00
2023-05-16T10:29:07.633Z,2329.00
2023-05-16T10:30:07.607Z,2356.00
2023-05-16T10:31:07.619Z,2382.00
2023-05-16T10:32:07.594Z,2381.00
2023-05-16T10:33:08.618Z,2414.00
2023-05-16T10:34:07.664Z,2430.00
2023-05-16T10:35:07.587Z,2431.00
2023-05-16T10:36:07.588Z,2453.00
2023-05-16T10:37:07.585Z,2445.00
2023-05-16T10:38:08.155Z,2431.00
2023-05-16T10:39:07.558Z,2375.00
2023-05-16T10:40:07.544Z,2373.00
2023-05-16T10:41:07.660Z,2344.00
2023-05-16T10:42:07.520Z,2301.00
2023-05-16T10:43:07.532Z,2244.00
2023-05-16T10:44:07.523Z,2232.00
2023-05-16T10:45:07.531Z,2225.00
2023-05-16T10:46:07.705Z,2184.00
2023-05-16T10:47:07.480Z,2239.00
2023-05-16T10:48:07.707Z,2224.00
2023-05-16T10:49:07.473Z,2185.00
2023-05-16T10:50:07.480Z,2193.00
2023-05-16T10:51:07.472Z,2232.00
2023-05-16T10:52:07.459Z,2262.00
2023-05-16T10:53:07.451Z,2318.00
2023-05-16T10:54:07.424Z,2342.00
2023-05-16T10:55:07.434Z,2365.00
2023-05-16T10:56:07.460Z,2415.00
2023-05-16T10:57:07.448Z,2429.00
2023-05-16T10:58:07.428Z,2450.00
2023-05-16T10:59:07.437Z,2503.00
2023-05-16T11:00:07.444Z,2521.00
2023-05-16T11:01:07.424Z,2552.00
2023-05-16T11:02:08.433Z,2554.00
2023-05-16T11:03:09.118Z,2564.00
2023-05-16T11:04:07.418Z,2582.00
2023-05-16T11:05:07.373Z,2619.00
2023-05-16T11:06:07.384Z,2666.00
2023-05-16T11:07:07.371Z,2700.00
2023-05-16T11:08:07.404Z,2732.00
2023-05-16T11:09:07.338Z,2745.00
2023-05-16T11:10:07.405Z,2849.00
2023-05-16T11:11:07.336Z,2858.00
2023-05-16T11:12:07.312Z,2846.00
2023-05-16T11:13:07.329Z,2832.00
2023-05-16T11:14:07.310Z,2830.00
2023-05-16T11:15:07.306Z,2842.00
2023-05-16T11:16:07.281Z,2866.00
2023-05-16T11:17:07.289Z,2867.00
2023-05-16T11:18:07.346Z,2875.00
2023-05-16T11:19:07.309Z,2892.00
2023-05-16T11:20:07.277Z,2942.00
2023-05-16T11:21:07.276Z,2938.00
2023-05-16T11:22:07.248Z,2961.00
2023-05-16T11:23:07.257Z,2964.00
2023-05-16T11:24:07.242Z,2981.00
2023-05-16T11:25:07.251Z,3005.00
2023-05-16T11:26:07.209Z,3028.00
2023-05-16T11:27:07.217Z,3027.00
2023-05-16T11:28:07.218Z,3046.00
2023-05-16T11:29:07.208Z,3055.00
2023-05-16T11:30:07.238Z,3057.00
2023-05-16T11:31:07.426Z,3096.00
2023-05-16T11:32:07.191Z,3095.00
2023-05-16T11:33:07.289Z,3124.00
2023-05-16T11:34:07.201Z,3133.00
2023-05-16T11:35:07.242Z,3152.00
2023-05-16T11:36:15.781Z,3178.00
2023-05-16T11:37:08.330Z,3180.00
2023-05-16T11:38:07.328Z,3154.00
2023-05-16T11:39:07.276Z,3184.00
2023-05-16T11:40:07.349Z,3132.00
2023-05-16T11:41:07.261Z,2987.00
2023-05-16T11:42:07.266Z,3031.00
2023-05-16T11:43:07.534Z,3096.00
2023-05-16T11:44:07.242Z,3086.00
2023-05-16T11:45:07.229Z,3054.00
2023-05-16T11:46:07.282Z,3006.00
2023-05-16T11:47:07.388Z,2997.00
2023-05-16T11:48:07.250Z,2990.00
2023-05-16T11:49:07.225Z,2940.00
2023-05-16T11:50:07.223Z,2940.00
2023-05-16T11:51:07.586Z,2878.00
2023-05-16T11:52:07.338Z,2907.00
2023-05-16T11:53:07.409Z,2897.00
2023-05-16T11:54:07.455Z,2847.00
2023-05-16T11:55:07.461Z,2799.00
2023-05-16T11:56:07.613Z,2776.00
2023-05-16T11:57:07.434Z,2767.00
2023-05-16T11:58:07.440Z,2770.00
2023-05-16T11:59:07.448Z,2756.00
2023-05-16T12:00:07.457Z,2791.00
2023-05-16T12:01:07.460Z,2841.00
2023-05-16T12:02:07.496Z,2789.00
2023-05-16T12:03:07.564Z,2782.00
2023-05-16T12:04:07.660Z,2779.00
2023-05-16T12:05:07.572Z,2795.00
2023-05-16T12:06:08.113Z,2764.00